createdAt,value
2023-04-08T00:00:54.245Z,94512.00
2023-04-08T00:01:54.358Z,94510.00
2023-04-08T00:02:54.417Z,94508.00
2023-04-08T00:03:54.419Z,94508.00
2023-04-08T00:04:54.375Z,94506.00
2023-04-08T00:05:54.384Z,94504.00
2023-04-08T00:06:54.453Z,94504.00
2023-04-08T00:07:54.427Z,94502.00
2023-04-08T00:08:54.441Z,94500.00
2023-04-08T00:09:54.484Z,94502.00
2023-04-08T00:10:54.541Z,94502.00
2023-04-08T00:11:54.536Z,94502.00
2023-04-08T00:12:54.591Z,94504.00
2023-04-08T00:13:54.579Z,94504.00
2023-04-08T00:14:54.612Z,94506.00
2023-04-08T00:15:54.630Z,94508.00
2023-04-08T00:16:54.674Z,94506.00
2023-04-08T00:17:54.792Z,94506.00
2023-04-08T00:18:54.715Z,94504.00
2023-04-08T00:19:54.753Z,94504.00
2023-04-08T00:20:54.770Z,94506.00
2023-04-08T00:21:54.801Z,94504.00
2023-04-08T00:22:54.825Z,94502.00
2023-04-08T00:23:54.859Z,94504.00
2023-04-08T00:24:54.889Z,94504.00
2023-04-08T00:25:54.917Z,94506.00
2023-04-08T00:26:54.950Z,94500.00
2023-04-08T00:27:54.979Z,94502.00
2023-04-08T00:28:55.018Z,94504.00
2023-04-08T00:29:55.052Z,94504.00
2023-04-08T00:30:55.156Z,94502.00
2023-04-08T00:31:55.129Z,94506.00
2023-04-08T00:32:55.190Z,94506.00
2023-04-08T00:33:55.165Z,94506.00
2023-04-08T00:34:55.201Z,94502.00
2023-04-08T00:35:55.289Z,94506.00
2023-04-08T00:36:55.269Z,94506.00
2023-04-08T00:37:55.313Z,94504.00
2023-04-08T00:38:55.316Z,94506.00
2023-04-08T00:39:55.354Z,94506.00
2023-04-08T00:40:55.365Z,94508.00
2023-04-08T00:41:55.416Z,94508.00
2023-04-08T00:42:55.437Z,94506.00
2023-04-08T00:43:55.475Z,94506.00
2023-04-08T00:44:55.516Z,94508.00
2023-04-08T00:45:55.530Z,94504.00
2023-04-08T00:46:55.547Z,94504.00
2023-04-08T00:47:55.577Z,94504.00
2023-04-08T00:48:55.601Z,94506.00
2023-04-08T00:49:55.620Z,94506.00
2023-04-08T00:50:55.665Z,94506.00
2023-04-08T00:51:55.695Z,94508.00
2023-04-08T00:52:55.716Z,94508.00
2023-04-08T00:53:55.729Z,94512.00
2023-04-08T00:54:55.774Z,94508.00
2023-04-08T00:55:55.801Z,94510.00
2023-04-08T00:56:55.838Z,94508.00
2023-04-08T00:57:55.853Z,94506.00
2023-04-08T00:58:55.894Z,94508.00
2023-04-08T00:59:55.933Z,94506.00
2023-04-08T01:01:32.486Z,94506.00
2023-04-08T01:02:32.572Z,94506.00
2023-04-08T01:03:32.505Z,94506.00
2023-04-08T01:04:32.562Z,94504.00
2023-04-08T01:05:32.431Z,94506.00
2023-04-08T01:06:32.415Z,94506.00
2023-04-08T01:07:32.409Z,94506.00
2023-04-08T01:08:32.419Z,94504.00
2023-04-08T01:09:32.386Z,94500.00
2023-04-08T01:10:32.380Z,94500.00
2023-04-08T01:11:32.399Z,94496.00
2023-04-08T01:12:32.390Z,94500.00
2023-04-08T01:13:32.372Z,94496.00
2023-04-08T01:14:32.374Z,94498.00
2023-04-08T01:15:32.387Z,94500.00
2023-04-08T01:16:32.351Z,94500.00
2023-04-08T01:17:32.390Z,94502.00
2023-04-08T01:18:32.334Z,94502.00
2023-04-08T01:19:32.328Z,94504.00
2023-04-08T01:20:32.350Z,94500.00
2023-04-08T01:21:32.333Z,94502.00
2023-04-08T01:22:32.314Z,94504.00
2023-04-08T01:23:32.322Z,94506.00
2023-04-08T01:24:32.297Z,94508.00
2023-04-08T01:25:32.469Z,94508.00
2023-04-08T01:26:32.316Z,94508.00
2023-04-08T01:27:32.312Z,94508.00
2023-04-08T01:28:32.289Z,94506.00
2023-04-08T01:29:32.265Z,94502.00
2023-04-08T01:30:32.261Z,94502.00
2023-04-08T01:31:32.425Z,94504.00
2023-04-08T01:32:32.384Z,94504.00
2023-04-08T01:33:32.374Z,94506.00
2023-04-08T01:34:32.407Z,94504.00
2023-04-08T01:35:32.453Z,94504.00
2023-04-08T01:36:32.489Z,94504.00
2023-04-08T01:37:32.520Z,94506.00
2023-04-08T01:38:32.529Z,94504.00
2023-04-08T01:39:32.557Z,94506.00
2023-04-08T01:40:32.596Z,94502.00
2023-04-08T01:41:32.628Z,94504.00
2023-04-08T01:42:32.636Z,94504.00
2023-04-08T01:43:32.677Z,94500.00
2023-04-08T01:44:32.706Z,94504.00
2023-04-08T01:45:32.831Z,94504.00
2023-04-08T01:46:32.776Z,94506.00
2023-04-08T01:47:32.879Z,94506.00
2023-04-08T01:48:32.829Z,94506.00
2023-04-08T01:49:32.839Z,94506.00
2023-04-08T01:50:32.869Z,94506.00
2023-04-08T01:51:32.937Z,94506.00
2023-04-08T01:52:32.936Z,94510.00
2023-04-08T01:53:32.964Z,94510.00
2023-04-08T01:54:32.990Z,94512.00
2023-04-08T01:55:33.017Z,94512.00
2023-04-08T01:56:33.042Z,94516.00
2023-04-08T01:57:33.076Z,94516.00
2023-04-08T01:58:33.105Z,94518.00
2023-04-08T01:59:33.158Z,94520.00
2023-04-08T02:00:33.174Z,94522.00
2023-04-08T02:01:33.327Z,94522.00
2023-04-08T02:02:33.409Z,94522.00
2023-04-08T02:03:33.378Z,94526.00
2023-04-08T02:04:33.351Z,94528.00
2023-04-08T02:05:33.312Z,94530.00
2023-04-08T02:06:33.348Z,94530.00
2023-04-08T02:07:33.382Z,94530.00
2023-04-08T02:08:33.405Z,94528.00
2023-04-08T02:09:33.440Z,94528.00
2023-04-08T02:10:33.478Z,94530.00
2023-04-08T02:11:33.497Z,94530.00
2023-04-08T02:12:33.544Z,94532.00
2023-04-08T02:13:33.539Z,94528.00
2023-04-08T02:14:33.564Z,94534.00
2023-04-08T02:15:33.632Z,94536.00
2023-04-08T02:16:33.643Z,94536.00
2023-04-08T02:17:35.740Z,94536.00
2023-04-08T02:18:33.682Z,94538.00
2023-04-08T02:19:33.710Z,94536.00
2023-04-08T02:20:33.764Z,94534.00
2023-04-08T02:21:33.776Z,94532.00
2023-04-08T02:22:33.819Z,94530.00
2023-04-08T02:23:33.833Z,94528.00
2023-04-08T02:24:33.889Z,94526.00
2023-04-08T02:25:34.038Z,94526.00
2023-04-08T02:26:33.949Z,94524.00
2023-04-08T02:27:33.965Z,94524.00
2023-04-08T02:28:34.000Z,94522.00
2023-04-08T02:29:34.038Z,94524.00
2023-04-08T02:30:34.086Z,94522.00
2023-04-08T02:31:34.181Z,94526.00
2023-04-08T02:32:34.137Z,94524.00
2023-04-08T02:33:34.145Z,94526.00
2023-04-08T02:34:34.184Z,94530.00
2023-04-08T02:35:34.341Z,94532.00
2023-04-08T02:36:34.278Z,94532.00
2023-04-08T02:37:34.309Z,94530.00
2023-04-08T02:38:34.351Z,94532.00
2023-04-08T02:39:34.389Z,94534.00
2023-04-08T02:40:34.422Z,94532.00
2023-04-08T02:41:34.458Z,94532.00
2023-04-08T02:42:34.491Z,94532.00
2023-04-08T02:43:34.542Z,94532.00
2023-04-08T02:44:34.565Z,94532.00
2023-04-08T02:45:34.616Z,94528.00
2023-04-08T02:46:34.621Z,94530.00
2023-04-08T02:47:34.698Z,94530.00
2023-04-08T02:48:34.702Z,94532.00
2023-04-08T02:49:34.738Z,94532.00
2023-04-08T02:50:34.783Z,94534.00
2023-04-08T02:51:34.820Z,94536.00
2023-04-08T02:52:34.862Z,94534.00
2023-04-08T02:53:34.905Z,94534.00
2023-04-08T02:54:34.941Z,94534.00
2023-04-08T02:55:34.976Z,94532.00
2023-04-08T02:56:35.001Z,94532.00
2023-04-08T02:57:35.034Z,94532.00
2023-04-08T02:58:35.065Z,94530.00
2023-04-08T02:59:35.120Z,94534.00
2023-04-08T03:00:35.159Z,94534.00
2023-04-08T03:01:35.338Z,94532.00
2023-04-08T03:02:35.413Z,94534.00
2023-04-08T03:03:35.303Z,94534.00
2023-04-08T03:04:35.272Z,94538.00
2023-04-08T03:05:35.322Z,94534.00
2023-04-08T03:06:35.358Z,94536.00
2023-04-08T03:07:35.377Z,94532.00
2023-04-08T03:08:35.416Z,94534.00
2023-04-08T03:09:35.450Z,94532.00
2023-04-08T03:10:35.467Z,94528.00
2023-04-08T03:11:35.522Z,94528.00
2023-04-08T03:12:35.559Z,94528.00
2023-04-08T03:13:35.577Z,94534.00
2023-04-08T03:14:35.608Z,94536.00
2023-04-08T03:15:35.637Z,94536.00
2023-04-08T03:16:35.692Z,94538.00
2023-04-08T03:17:35.723Z,94538.00
2023-04-08T03:18:35.751Z,94536.00
2023-04-08T03:19:35.789Z,94532.00
2023-04-08T03:20:35.832Z,94534.00
2023-04-08T03:21:35.843Z,94536.00
2023-04-08T03:22:35.899Z,94532.00
2023-04-08T03:23:35.926Z,94532.00
2023-04-08T03:24:35.973Z,94530.00
2023-04-08T03:25:36.010Z,94530.00
2023-04-08T03:26:36.055Z,94530.00
2023-04-08T03:27:36.105Z,94532.00
2023-04-08T03:28:36.126Z,94536.00
2023-04-08T03:29:36.159Z,94538.00
2023-04-08T03:30:36.211Z,94539.00
2023-04-08T03:31:36.241Z,94539.00
2023-04-08T03:32:36.332Z,94541.00
2023-04-08T03:33:36.313Z,94538.00
2023-04-08T03:34:36.365Z,94536.00
2023-04-08T03:35:36.405Z,94530.00
2023-04-08T03:36:36.421Z,94532.00
2023-04-08T03:37:36.478Z,94532.00
2023-04-08T03:38:36.507Z,94532.00
2023-04-08T03:39:36.531Z,94532.00
2023-04-08T03:40:36.579Z,94534.00
2023-04-08T03:41:36.614Z,94534.00
2023-04-08T03:42:36.675Z,94536.00
2023-04-08T03:43:38.017Z,94536.00
2023-04-08T03:44:36.720Z,94530.00
2023-04-08T03:45:36.789Z,94534.00
2023-04-08T03:46:36.809Z,94539.00
2023-04-08T03:47:36.839Z,94541.00
2023-04-08T03:48:36.881Z,94541.00
2023-04-08T03:49:36.954Z,94545.00
2023-04-08T03:50:36.963Z,94545.00
2023-04-08T03:51:37.005Z,94547.00
2023-04-08T03:52:37.040Z,94547.00
2023-04-08T03:53:37.068Z,94547.00
2023-04-08T03:54:37.108Z,94547.00
2023-04-08T03:55:37.152Z,94547.00
2023-04-08T03:56:37.178Z,94549.00
2023-04-08T03:57:37.227Z,94549.00
2023-04-08T03:58:37.292Z,94551.00
2023-04-08T03:59:37.294Z,94551.00
2023-04-08T04:00:37.353Z,94553.00
2023-04-08T04:01:37.377Z,94555.00
2023-04-08T04:02:37.473Z,94559.00
2023-04-08T04:03:37.595Z,94557.00
2023-04-08T04:04:37.522Z,94559.00
2023-04-08T04:05:37.517Z,94559.00
2023-04-08T04:06:37.569Z,94561.00
2023-04-08T04:07:37.958Z,94561.00
2023-04-08T04:08:37.639Z,94555.00
2023-04-08T04:09:37.726Z,94557.00
2023-04-08T04:10:37.720Z,94555.00
2023-04-08T04:11:37.761Z,94561.00
2023-04-08T04:12:37.796Z,94559.00
2023-04-08T04:13:37.841Z,94561.00
2023-04-08T04:14:37.857Z,94567.00
2023-04-08T04:15:37.904Z,94565.00
2023-04-08T04:16:37.936Z,94567.00
2023-04-08T04:17:38.028Z,94567.00
2023-04-08T04:18:38.096Z,94571.00
2023-04-08T04:19:38.045Z,94573.00
2023-04-08T04:20:38.103Z,94571.00
2023-04-08T04:21:38.137Z,94569.00
2023-04-08T04:22:38.184Z,94571.00
2023-04-08T04:23:38.206Z,94573.00
2023-04-08T04:24:38.273Z,94571.00
2023-04-08T04:25:38.289Z,94573.00
2023-04-08T04:26:38.344Z,94573.00
2023-04-08T04:27:38.381Z,94575.00
2023-04-08T04:28:38.449Z,94575.00
2023-04-08T04:29:38.480Z,94577.00
2023-04-08T04:30:38.563Z,94575.00
2023-04-08T04:31:38.722Z,94575.00
2023-04-08T04:32:38.628Z,94575.00
2023-04-08T04:33:38.667Z,94575.00
2023-04-08T04:34:38.667Z,94575.00
2023-04-08T04:35:38.771Z,94575.00
2023-04-08T04:36:38.749Z,94575.00
2023-04-08T04:37:38.802Z,94575.00
2023-04-08T04:38:38.841Z,94577.00
2023-04-08T04:39:38.893Z,94577.00
2023-04-08T04:40:38.919Z,94577.00
2023-04-08T04:41:38.949Z,94577.00
2023-04-08T04:42:38.993Z,94575.00
2023-04-08T04:43:39.027Z,94579.00
2023-04-08T04:44:39.082Z,94577.00
2023-04-08T04:45:39.132Z,94579.00
2023-04-08T04:46:39.215Z,94579.00
2023-04-08T04:47:39.274Z,94581.00
2023-04-08T04:48:39.265Z,94581.00
2023-04-08T04:49:39.314Z,94581.00
2023-04-08T04:50:39.355Z,94583.00
2023-04-08T04:51:39.398Z,94583.00
2023-04-08T04:52:39.455Z,94583.00
2023-04-08T04:53:39.498Z,94583.00
2023-04-08T04:54:39.535Z,94583.00
2023-04-08T04:55:39.560Z,94585.00
2023-04-08T04:56:39.629Z,94585.00
2023-04-08T04:57:39.672Z,94585.00
2023-04-08T04:58:39.700Z,94586.00
2023-04-08T04:59:39.747Z,94588.00
2023-04-08T05:00:39.769Z,94588.00
2023-04-08T05:01:39.893Z,94590.00
2023-04-08T05:02:40.110Z,94590.00
2023-04-08T05:03:40.004Z,94588.00
2023-04-08T05:04:39.965Z,94590.00
2023-04-08T05:05:39.984Z,94592.00
2023-04-08T05:06:40.047Z,94592.00
2023-04-08T05:07:40.103Z,94594.00
2023-04-08T05:08:40.114Z,94594.00
2023-04-08T05:09:40.162Z,94592.00
2023-04-08T05:10:40.208Z,94590.00
2023-04-08T05:11:40.245Z,94594.00
2023-04-08T05:12:40.298Z,94596.00
2023-04-08T05:13:40.347Z,94598.00
2023-04-08T05:14:40.380Z,94598.00
2023-04-08T05:15:40.529Z,94600.00
2023-04-08T05:16:40.715Z,94600.00
2023-04-08T05:17:40.611Z,94604.00
2023-04-08T05:18:40.568Z,94604.00
2023-04-08T05:19:40.598Z,94604.00
2023-04-08T05:20:40.649Z,94604.00
2023-04-08T05:21:40.684Z,94604.00
2023-04-08T05:22:40.735Z,94606.00
2023-04-08T05:23:40.770Z,94604.00
2023-04-08T05:24:40.815Z,94606.00
2023-04-08T05:25:40.860Z,94604.00
2023-04-08T05:26:40.916Z,94606.00
2023-04-08T05:27:40.955Z,94604.00
2023-04-08T05:28:41.012Z,94606.00
2023-04-08T05:29:41.032Z,94606.00
2023-04-08T05:30:41.080Z,94606.00
2023-04-08T05:31:41.132Z,94608.00
2023-04-08T05:32:41.196Z,94608.00
2023-04-08T05:33:41.226Z,94608.00
2023-04-08T05:34:41.270Z,94612.00
2023-04-08T05:35:41.344Z,94610.00
2023-04-08T05:36:41.355Z,94612.00
2023-04-08T05:37:41.422Z,94610.00
2023-04-08T05:38:41.437Z,94610.00
2023-04-08T05:39:41.473Z,94612.00
2023-04-08T05:40:41.526Z,94612.00
2023-04-08T05:41:41.569Z,94612.00
2023-04-08T05:42:41.662Z,94614.00
2023-04-08T05:43:41.660Z,94614.00
2023-04-08T05:44:41.717Z,94614.00
2023-04-08T05:45:41.725Z,94616.00
2023-04-08T05:46:41.800Z,94614.00
2023-04-08T05:47:41.879Z,94612.00
2023-04-08T05:48:41.863Z,94614.00
2023-04-08T05:49:41.890Z,94614.00
2023-04-08T05:50:41.941Z,94614.00
2023-04-08T05:51:41.973Z,94614.00
2023-04-08T05:52:42.038Z,94618.00
2023-04-08T05:53:42.064Z,94614.00
2023-04-08T05:54:42.098Z,94618.00
2023-04-08T05:55:42.148Z,94616.00
2023-04-08T05:56:42.169Z,94620.00
2023-04-08T05:57:42.250Z,94618.00
2023-04-08T05:58:42.249Z,94618.00
2023-04-08T05:59:42.305Z,94618.00
2023-04-08T06:00:42.342Z,94618.00
2023-04-08T06:01:42.438Z,94618.00
2023-04-08T06:02:42.524Z,94622.00
2023-04-08T06:03:42.593Z,94624.00
2023-04-08T06:04:42.635Z,94626.00
2023-04-08T06:05:42.569Z,94626.00
2023-04-08T06:06:42.567Z,94626.00
2023-04-08T06:07:42.614Z,94630.00
2023-04-08T06:08:42.623Z,94633.00
2023-04-08T06:09:43.822Z,94632.00
2023-04-08T06:10:42.796Z,94632.00
2023-04-08T06:11:43.065Z,94633.00
2023-04-08T06:12:42.900Z,94633.00
2023-04-08T06:13:42.884Z,94632.00
2023-04-08T06:14:42.908Z,94630.00
2023-04-08T06:15:42.954Z,94633.00
2023-04-08T06:16:42.991Z,94628.00
2023-04-08T06:17:43.072Z,94630.00
2023-04-08T06:18:43.014Z,94633.00
2023-04-08T06:19:43.097Z,94630.00
2023-04-08T06:20:43.125Z,94630.00
2023-04-08T06:21:43.116Z,94628.00
2023-04-08T06:22:43.170Z,94632.00
2023-04-08T06:23:43.150Z,94628.00
2023-04-08T06:24:43.305Z,94628.00
2023-04-08T06:25:43.222Z,94628.00
2023-04-08T06:26:43.252Z,94630.00
2023-04-08T06:27:43.245Z,94628.00
2023-04-08T06:28:43.282Z,94630.00
2023-04-08T06:29:43.392Z,94630.00
2023-04-08T06:30:43.319Z,94632.00
2023-04-08T06:31:43.346Z,94632.00
2023-04-08T06:32:43.364Z,94633.00
2023-04-08T06:33:43.353Z,94633.00
2023-04-08T06:34:43.387Z,94628.00
2023-04-08T06:35:43.420Z,94630.00
2023-04-08T06:36:43.402Z,94626.00
2023-04-08T06:37:43.403Z,94626.00
2023-04-08T06:38:43.405Z,94628.00
2023-04-08T06:39:43.414Z,94624.00
2023-04-08T06:40:43.426Z,94630.00
2023-04-08T06:41:43.433Z,94628.00
2023-04-08T06:42:43.453Z,94632.00
2023-04-08T06:43:43.444Z,94630.00
2023-04-08T06:44:43.456Z,94630.00
2023-04-08T06:45:43.491Z,94633.00
2023-04-08T06:46:43.511Z,94633.00
2023-04-08T06:47:43.535Z,94635.00
2023-04-08T06:48:43.510Z,94630.00
2023-04-08T06:49:43.535Z,94633.00
2023-04-08T06:50:43.509Z,94632.00
2023-04-08T06:51:43.590Z,94630.00
2023-04-08T06:52:43.518Z,94630.00
2023-04-08T06:53:43.543Z,94628.00
2023-04-08T06:54:43.573Z,94628.00
2023-04-08T06:55:43.589Z,94628.00
2023-04-08T06:56:43.636Z,94628.00
2023-04-08T06:57:43.690Z,94628.00
2023-04-08T06:58:43.746Z,94628.00
2023-04-08T06:59:43.757Z,94626.00
2023-04-08T07:00:43.818Z,94628.00
2023-04-08T07:01:44.052Z,94624.00
2023-04-08T07:02:43.994Z,94622.00
2023-04-08T07:03:44.086Z,94628.00
2023-04-08T07:04:45.499Z,94624.00
2023-04-08T07:05:44.014Z,94628.00
2023-04-08T07:06:44.018Z,94630.00
2023-04-08T07:07:43.994Z,94626.00
2023-04-08T07:08:44.009Z,94630.00
2023-04-08T07:09:43.983Z,94630.00
2023-04-08T07:10:43.977Z,94628.00
2023-04-08T07:11:43.992Z,94628.00
2023-04-08T07:12:43.980Z,94632.00
2023-04-08T07:13:43.966Z,94632.00
2023-04-08T07:14:43.970Z,94628.00
2023-04-08T07:15:43.961Z,94630.00
2023-04-08T07:16:44.049Z,94630.00
2023-04-08T07:17:43.974Z,94630.00
2023-04-08T07:18:43.985Z,94630.00
2023-04-08T07:19:43.924Z,94633.00
2023-04-08T07:20:43.955Z,94628.00
2023-04-08T07:21:43.924Z,94632.00
2023-04-08T07:22:43.899Z,94632.00
2023-04-08T07:23:43.916Z,94632.00
2023-04-08T07:24:43.920Z,94630.00
2023-04-08T07:25:43.895Z,94630.00
2023-04-08T07:26:43.911Z,94632.00
2023-04-08T07:27:43.889Z,94632.00
2023-04-08T07:28:43.888Z,94632.00
2023-04-08T07:29:43.888Z,94633.00
2023-04-08T07:30:43.910Z,94630.00
2023-04-08T07:31:43.850Z,94630.00
2023-04-08T07:32:43.888Z,94630.00
2023-04-08T07:33:43.851Z,94632.00
2023-04-08T07:34:43.846Z,94632.00
2023-04-08T07:35:43.841Z,94632.00
2023-04-08T07:36:43.816Z,94632.00
2023-04-08T07:37:43.823Z,94630.00
2023-04-08T07:38:43.809Z,94632.00
2023-04-08T07:39:43.799Z,94630.00
2023-04-08T07:40:43.800Z,94630.00
2023-04-08T07:41:43.797Z,94632.00
2023-04-08T07:42:43.772Z,94632.00
2023-04-08T07:43:43.765Z,94632.00
2023-04-08T07:44:43.772Z,94632.00
2023-04-08T07:45:43.809Z,94632.00
2023-04-08T07:46:43.765Z,94635.00
2023-04-08T07:47:43.762Z,94633.00
2023-04-08T07:48:43.815Z,94635.00
2023-04-08T07:49:43.866Z,94633.00
2023-04-08T07:51:08.866Z,94635.00
2023-04-08T07:51:44.909Z,94633.00
2023-04-08T07:52:43.918Z,94635.00
2023-04-08T07:53:43.895Z,94635.00
2023-04-08T07:54:43.904Z,94637.00
2023-04-08T07:55:43.921Z,94635.00
2023-04-08T07:56:43.880Z,94637.00
2023-04-08T07:57:43.927Z,94639.00
2023-04-08T07:58:43.885Z,94639.00
2023-04-08T07:59:43.933Z,94639.00
2023-04-08T08:00:44.007Z,94639.00
2023-04-08T08:01:44.072Z,94635.00
2023-04-08T08:02:44.174Z,94635.00
2023-04-08T08:03:44.360Z,94637.00
2023-04-08T08:04:44.449Z,94633.00
2023-04-08T08:05:44.278Z,94635.00
2023-04-08T08:06:44.339Z,94635.00
2023-04-08T08:07:44.384Z,94633.00
2023-04-08T08:08:44.437Z,94630.00
2023-04-08T08:09:44.504Z,94633.00
2023-04-08T08:10:44.564Z,94632.00
2023-04-08T08:11:44.619Z,94632.00
2023-04-08T08:12:44.670Z,94632.00
2023-04-08T08:13:44.713Z,94632.00
2023-04-08T08:14:44.759Z,94633.00
2023-04-08T08:15:44.827Z,94633.00
2023-04-08T08:16:44.894Z,94633.00
2023-04-08T08:17:45.013Z,94632.00
2023-04-08T08:18:44.966Z,94630.00
2023-04-08T08:19:45.001Z,94630.00
2023-04-08T08:20:45.066Z,94628.00
2023-04-08T08:21:45.108Z,94628.00
2023-04-08T08:22:54.548Z,94628.00
2023-04-08T08:23:46.159Z,94626.00
2023-04-08T08:24:45.136Z,94626.00
2023-04-08T08:25:45.126Z,94626.00
2023-04-08T08:26:45.136Z,94624.00
2023-04-08T08:27:45.140Z,94626.00
2023-04-08T08:28:45.126Z,94622.00
2023-04-08T08:29:45.116Z,94622.00
2023-04-08T08:30:45.107Z,94622.00
2023-04-08T08:31:45.168Z,94618.00
2023-04-08T08:32:45.105Z,94624.00
2023-04-08T08:33:45.074Z,94622.00
2023-04-08T08:34:45.101Z,94614.00
2023-04-08T08:35:45.176Z,94620.00
2023-04-08T08:36:45.180Z,94618.00
2023-04-08T08:37:45.200Z,94616.00
2023-04-08T08:38:45.285Z,94614.00
2023-04-08T08:39:45.269Z,94614.00
2023-04-08T08:40:45.310Z,94616.00
2023-04-08T08:41:45.337Z,94614.00
2023-04-08T08:42:45.400Z,94612.00
2023-04-08T08:43:45.420Z,94608.00
2023-04-08T08:44:45.439Z,94606.00
2023-04-08T08:45:45.507Z,94608.00
2023-04-08T08:46:45.561Z,94608.00
2023-04-08T08:47:45.589Z,94604.00
2023-04-08T08:48:45.595Z,94602.00
2023-04-08T08:49:45.613Z,94602.00
2023-04-08T08:50:45.699Z,94602.00
2023-04-08T08:51:45.698Z,94602.00
2023-04-08T08:52:45.713Z,94602.00
2023-04-08T08:53:45.800Z,94602.00
2023-04-08T08:54:45.779Z,94602.00
2023-04-08T08:56:45.813Z,94596.00
2023-04-08T08:57:45.818Z,94598.00
2023-04-08T08:58:45.863Z,94594.00
2023-04-08T08:59:45.801Z,94592.00
2023-04-08T09:00:45.803Z,94594.00
2023-04-08T09:01:45.832Z,94594.00
2023-04-08T09:02:45.991Z,94594.00
2023-04-08T09:03:45.942Z,94592.00
2023-04-08T09:04:45.940Z,94590.00
2023-04-08T09:05:45.821Z,94588.00
2023-04-08T09:06:45.763Z,94588.00
2023-04-08T09:07:45.768Z,94592.00
2023-04-08T09:08:45.717Z,94590.00
2023-04-08T09:09:45.737Z,94590.00
2023-04-08T09:10:45.723Z,94590.00
2023-04-08T09:11:45.703Z,94588.00
2023-04-08T09:12:45.756Z,94586.00
2023-04-08T09:13:45.738Z,94586.00
2023-04-08T09:14:45.759Z,94588.00
2023-04-08T09:15:45.820Z,94585.00
2023-04-08T09:16:45.838Z,94585.00
2023-04-08T09:17:45.895Z,94585.00
2023-04-08T09:18:45.864Z,94581.00
2023-04-08T09:19:45.862Z,94579.00
2023-04-08T09:20:45.906Z,94579.00
2023-04-08T09:21:45.944Z,94577.00
2023-04-08T09:22:45.934Z,94577.00
2023-04-08T09:23:45.989Z,94577.00
2023-04-08T09:24:45.979Z,94577.00
2023-04-08T09:25:46.020Z,94573.00
2023-04-08T09:26:46.028Z,94573.00
2023-04-08T09:27:46.051Z,94575.00
2023-04-08T09:28:46.078Z,94573.00
2023-04-08T09:29:46.128Z,94571.00
2023-04-08T09:30:46.152Z,94571.00
2023-04-08T09:31:46.189Z,94569.00
2023-04-08T09:32:46.183Z,94573.00
2023-04-08T09:33:46.227Z,94569.00
2023-04-08T09:34:46.253Z,94569.00
2023-04-08T09:35:46.289Z,94567.00
2023-04-08T09:36:46.308Z,94565.00
2023-04-08T09:37:46.315Z,94567.00
2023-04-08T09:38:46.344Z,94563.00
2023-04-08T09:39:46.375Z,94561.00
2023-04-08T09:40:46.400Z,94559.00
2023-04-08T09:41:46.426Z,94559.00
2023-04-08T09:42:46.435Z,94557.00
2023-04-08T09:43:46.471Z,94559.00
2023-04-08T09:44:46.491Z,94555.00
2023-04-08T09:45:46.520Z,94559.00
2023-04-08T09:46:46.539Z,94555.00
2023-04-08T09:47:46.627Z,94557.00
2023-04-08T09:48:46.611Z,94555.00
2023-04-08T09:49:46.639Z,94553.00
2023-04-08T09:50:46.654Z,94553.00
2023-04-08T09:51:46.684Z,94549.00
2023-04-08T09:52:46.720Z,94545.00
2023-04-08T09:53:46.747Z,94545.00
2023-04-08T09:54:46.772Z,94547.00
2023-04-08T09:55:46.816Z,94549.00
2023-04-08T09:56:46.852Z,94545.00
2023-04-08T09:57:46.870Z,94545.00
2023-04-08T09:58:46.882Z,94545.00
2023-04-08T09:59:46.929Z,94545.00
2023-04-08T10:00:46.976Z,94543.00
2023-04-08T10:01:46.998Z,94545.00
2023-04-08T10:02:47.155Z,94543.00
2023-04-08T10:03:47.089Z,94545.00
2023-04-08T10:04:47.076Z,94545.00
2023-04-08T10:05:47.087Z,94541.00
2023-04-08T10:06:47.102Z,94538.00
2023-04-08T10:07:47.140Z,94541.00
2023-04-08T10:08:47.169Z,94538.00
2023-04-08T10:09:47.193Z,94539.00
2023-04-08T10:10:47.914Z,94545.00
2023-04-08T10:11:47.237Z,94543.00
2023-04-08T10:12:47.246Z,94545.00
2023-04-08T10:13:47.301Z,94541.00
2023-04-08T10:14:47.301Z,94539.00
2023-04-08T10:15:47.335Z,94543.00
2023-04-08T10:16:47.396Z,94543.00
2023-04-08T10:17:47.406Z,94541.00
2023-04-08T10:18:47.434Z,94543.00
2023-04-08T10:19:47.451Z,94541.00
2023-04-08T10:20:47.489Z,94541.00
2023-04-08T10:21:47.539Z,94539.00
2023-04-08T10:22:47.560Z,94543.00
2023-04-08T10:23:47.654Z,94543.00
2023-04-08T10:24:47.629Z,94543.00
2023-04-08T10:25:47.739Z,94543.00
2023-04-08T10:26:47.794Z,94541.00
2023-04-08T10:27:47.736Z,94536.00
2023-04-08T10:28:47.776Z,94538.00
2023-04-08T10:29:47.820Z,94539.00
2023-04-08T10:30:47.859Z,94543.00
2023-04-08T10:31:47.908Z,94539.00
2023-04-08T10:32:47.942Z,94543.00
2023-04-08T10:33:48.137Z,94541.00
2023-04-08T10:34:48.012Z,94541.00
2023-04-08T10:35:48.083Z,94541.00
2023-04-08T10:36:48.088Z,94543.00
2023-04-08T10:37:48.123Z,94543.00
2023-04-08T10:38:48.171Z,94547.00
2023-04-08T10:39:48.197Z,94543.00
2023-04-08T10:40:48.277Z,94541.00
2023-04-08T10:41:48.285Z,94539.00
2023-04-08T10:42:48.319Z,94543.00
2023-04-08T10:43:48.474Z,94541.00
2023-04-08T10:44:48.417Z,94539.00
2023-04-08T10:45:48.796Z,94541.00
2023-04-08T10:46:48.491Z,94543.00
2023-04-08T10:47:48.577Z,94547.00
2023-04-08T10:48:48.597Z,94545.00
2023-04-08T10:49:48.633Z,94541.00
2023-04-08T10:50:48.684Z,94538.00
2023-04-08T10:51:48.733Z,94543.00
2023-04-08T10:52:48.780Z,94545.00
2023-04-08T10:53:48.915Z,94545.00
2023-04-08T10:54:48.870Z,94543.00
2023-04-08T10:55:48.916Z,94543.00
2023-04-08T10:56:48.993Z,94545.00
2023-04-08T10:57:49.032Z,94543.00
2023-04-08T10:58:49.082Z,94543.00
2023-04-08T10:59:49.132Z,94547.00
2023-04-08T11:00:49.180Z,94543.00
2023-04-08T11:01:49.261Z,94541.00
2023-04-08T11:02:49.302Z,94539.00
2023-04-08T11:03:49.421Z,94539.00
2023-04-08T11:04:49.361Z,94539.00
2023-04-08T11:05:49.404Z,94541.00
2023-04-08T11:06:49.471Z,94543.00
2023-04-08T11:07:49.501Z,94547.00
2023-04-08T11:08:49.533Z,94545.00
2023-04-08T11:09:49.604Z,94549.00
2023-04-08T11:10:49.646Z,94549.00
2023-04-08T11:11:49.726Z,94543.00
2023-04-08T11:12:49.740Z,94547.00
2023-04-08T11:13:53.762Z,94547.00
2023-04-08T11:14:49.789Z,94553.00
2023-04-08T11:15:49.771Z,94553.00
2023-04-08T11:16:49.809Z,94549.00
2023-04-08T11:17:49.789Z,94553.00
2023-04-08T11:18:49.746Z,94551.00
2023-04-08T11:19:49.744Z,94551.00
2023-04-08T11:20:49.727Z,94555.00
2023-04-08T11:21:49.724Z,94557.00
2023-04-08T11:22:49.722Z,94557.00
2023-04-08T11:23:50.079Z,94555.00
2023-04-08T11:24:49.738Z,94555.00
2023-04-08T11:25:49.709Z,94553.00
2023-04-08T11:26:49.698Z,94553.00
2023-04-08T11:27:49.697Z,94555.00
2023-04-08T11:28:49.679Z,94553.00
2023-04-08T11:29:49.667Z,94553.00
2023-04-08T11:30:49.711Z,94549.00
2023-04-08T11:31:49.665Z,94553.00
2023-04-08T11:32:49.699Z,94553.00
2023-04-08T11:33:49.948Z,94547.00
2023-04-08T11:34:49.651Z,94551.00
2023-04-08T11:35:49.691Z,94553.00
2023-04-08T11:36:49.707Z,94549.00
2023-04-08T11:37:49.797Z,94549.00
2023-04-08T11:38:49.806Z,94547.00
2023-04-08T11:39:49.832Z,94547.00
2023-04-08T11:40:49.880Z,94551.00
2023-04-08T11:41:49.920Z,94551.00
2023-04-08T11:42:49.973Z,94549.00
2023-04-08T11:43:50.137Z,94549.00
2023-04-08T11:44:50.026Z,94547.00
2023-04-08T11:45:50.079Z,94549.00
2023-04-08T11:46:50.176Z,94547.00